createdAt,value
2022-10-31T00:00:09.745Z,100131.19
2022-10-31T00:02:38.077Z,100135.88
2022-10-31T00:05:04.783Z,100137.09
2022-10-31T00:07:31.181Z,100133.09
2022-10-31T00:09:57.601Z,100130.97
2022-10-31T00:12:24.044Z,100129.97
2022-10-31T00:14:50.673Z,100132.31
2022-10-31T00:17:17.051Z,100143.56
2022-10-31T00:19:43.428Z,100140.25
2022-10-31T00:22:09.841Z,100131.53
2022-10-31T00:24:36.247Z,100133.44
2022-10-31T00:27:02.632Z,100136.81
2022-10-31T00:29:29.191Z,100133.34
2022-10-31T00:31:55.576Z,100129.72
2022-10-31T00:34:22.199Z,100132.34
2022-10-31T00:36:48.595Z,100131.09
2022-10-31T00:39:14.973Z,100126.63
2022-10-31T00:41:41.475Z,100130.69
2022-10-31T00:44:12.243Z,100131.00
2022-10-31T00:46:38.614Z,100132.34
2022-10-31T00:49:04.993Z,100125.66
2022-10-31T00:51:31.537Z,100116.41
2022-10-31T00:53:58.742Z,100124.03
2022-10-31T00:56:25.118Z,100124.09
2022-10-31T00:58:51.957Z,100126.59
2022-10-31T01:01:19.947Z,100123.94
2022-10-31T01:03:46.455Z,100123.19
2022-10-31T01:06:14.212Z,100124.41
2022-10-31T01:08:41.228Z,100120.59
2022-10-31T01:11:13.920Z,100119.97
2022-10-31T01:13:41.412Z,100122.03
2022-10-31T01:16:09.132Z,100129.22
2022-10-31T01:18:35.750Z,100133.09
2022-10-31T01:21:03.816Z,100131.16
2022-10-31T01:23:30.788Z,100141.22
2022-10-31T01:26:21.978Z,100141.50
2022-10-31T01:28:51.496Z,100136.09
2022-10-31T01:31:20.225Z,100138.03
2022-10-31T01:33:46.686Z,100135.53
2022-10-31T01:36:21.939Z,100124.66
2022-10-31T01:38:53.413Z,100140.44
2022-10-31T01:41:26.087Z,100136.31
2022-10-31T01:43:58.801Z,100131.53
2022-10-31T01:46:28.553Z,100133.00
2022-10-31T01:48:56.626Z,100134.88
2022-10-31T01:51:29.265Z,100127.28
2022-10-31T01:54:01.730Z,100137.22
2022-10-31T01:56:28.434Z,100122.81
2022-10-31T01:58:56.482Z,100125.59
2022-10-31T02:01:23.157Z,100123.66
2022-10-31T02:03:50.138Z,100123.19
2022-10-31T02:06:37.153Z,100123.19
2022-10-31T02:09:06.250Z,100124.84
2022-10-31T02:11:35.092Z,100124.03
2022-10-31T02:14:03.302Z,100117.69
2022-10-31T02:16:29.864Z,100111.53
2022-10-31T02:18:57.336Z,100114.53
2022-10-31T02:21:45.552Z,100119.78
2022-10-31T02:24:41.507Z,100114.31
2022-10-31T02:27:17.198Z,100120.28
2022-10-31T02:29:54.110Z,100118.81
2022-10-31T02:32:28.994Z,100117.41
2022-10-31T02:35:15.715Z,100117.41
2022-10-31T02:37:58.536Z,100112.53
2022-10-31T02:40:34.225Z,100113.53
2022-10-31T02:43:33.382Z,100109.72
2022-10-31T02:50:13.631Z,100111.31
2022-10-31T02:52:40.781Z,100107.84
2022-10-31T02:55:35.589Z,100103.34
2022-10-31T02:58:12.301Z,100100.69
2022-10-31T03:00:55.159Z,100107.84
2022-10-31T03:03:35.324Z,100095.84
2022-10-31T03:06:18.298Z,100101.13
2022-10-31T03:08:50.782Z,100094.16
2022-10-31T03:11:22.592Z,100098.38
2022-10-31T03:13:57.787Z,100105.84
2022-10-31T03:16:39.624Z,100106.94
2022-10-31T03:19:16.066Z,100099.34
2022-10-31T03:21:50.951Z,100101.88
2022-10-31T03:24:22.203Z,100093.88
2022-10-31T03:26:51.116Z,100106.38
2022-10-31T03:29:23.130Z,100104.28
2022-10-31T03:32:00.012Z,100105.34
2022-10-31T03:34:28.853Z,100101.47
2022-10-31T03:36:59.488Z,100096.41
2022-10-31T03:39:27.790Z,100103.84
2022-10-31T03:42:06.713Z,100103.69
2022-10-31T03:44:35.926Z,100117.56
2022-10-31T03:47:04.867Z,100099.41
2022-10-31T03:49:33.568Z,100097.97
2022-10-31T03:52:18.559Z,100096.50
2022-10-31T03:54:48.139Z,100097.13
2022-10-31T03:57:22.700Z,100096.88
2022-10-31T03:59:56.394Z,100092.19
2022-10-31T04:02:29.329Z,100097.56
2022-10-31T04:04:57.574Z,100098.69
2022-10-31T04:07:30.199Z,100084.28
2022-10-31T04:09:58.568Z,100100.59
2022-10-31T04:12:27.143Z,100087.63
2022-10-31T04:15:20.752Z,100088.66
2022-10-31T04:17:50.499Z,100098.75
2022-10-31T04:20:18.918Z,100108.16
2022-10-31T04:22:45.637Z,100103.84
2022-10-31T04:25:12.055Z,100098.78
2022-10-31T04:27:38.968Z,100099.00
2022-10-31T04:30:07.481Z,100103.81
2022-10-31T04:32:36.783Z,100093.66
2022-10-31T04:35:03.285Z,100100.22
2022-10-31T04:37:29.768Z,100100.09
2022-10-31T04:39:56.149Z,100096.81
2022-10-31T04:42:48.262Z,100111.75
2022-10-31T04:45:18.340Z,100096.22
2022-10-31T04:47:50.313Z,100097.03
2022-10-31T04:50:17.029Z,100098.63
2022-10-31T04:52:46.527Z,100105.72
2022-10-31T04:55:16.341Z,100106.81
2022-10-31T04:57:47.610Z,100106.50
2022-10-31T05:00:18.372Z,100091.31
2022-10-31T05:02:56.080Z,100093.41
2022-10-31T05:05:26.827Z,100098.22
2022-10-31T05:07:53.665Z,100102.91
2022-10-31T05:10:24.933Z,100103.75
2022-10-31T05:12:54.699Z,100098.56
2022-10-31T05:15:39.406Z,100095.53
2022-10-31T05:18:24.202Z,100096.78
2022-10-31T05:21:09.095Z,100092.66
2022-10-31T05:23:37.659Z,100096.78
2022-10-31T05:26:06.497Z,100097.72
2022-10-31T05:28:33.996Z,100099.63
2022-10-31T05:31:00.894Z,100092.13
2022-10-31T05:33:27.304Z,100085.31
2022-10-31T05:36:26.966Z,100083.06
2022-10-31T05:39:13.612Z,100078.34
2022-10-31T05:41:42.986Z,100078.47
2022-10-31T05:44:15.610Z,100079.72
2022-10-31T05:46:54.479Z,100076.31
2022-10-31T05:49:38.787Z,100075.69
2022-10-31T05:52:40.393Z,100078.41
2022-10-31T05:55:16.947Z,100075.56
2022-10-31T05:57:57.981Z,100084.56
2022-10-31T06:00:25.953Z,100089.28
2022-10-31T06:03:03.430Z,100066.94
2022-10-31T06:05:52.500Z,100072.00
2022-10-31T06:08:23.627Z,100070.00
2022-10-31T06:10:50.845Z,100071.16
2022-10-31T06:13:24.429Z,100074.81
2022-10-31T06:15:58.482Z,100070.09
2022-10-31T06:18:31.138Z,100072.88
2022-10-31T06:20:57.568Z,100070.31
2022-10-31T06:23:24.111Z,100076.16
2022-10-31T06:25:57.836Z,100075.31
2022-10-31T06:28:24.312Z,100074.50
2022-10-31T06:30:59.303Z,100073.66
2022-10-31T06:33:26.243Z,100071.50
2022-10-31T06:35:56.466Z,100079.56
2022-10-31T06:38:23.699Z,100078.63
2022-10-31T06:40:50.075Z,100079.47
2022-10-31T06:43:25.183Z,100084.69
2022-10-31T06:46:05.997Z,100080.44
2022-10-31T06:48:40.843Z,100072.59
2022-10-31T06:51:19.824Z,100082.13
2022-10-31T06:53:47.632Z,100067.84
2022-10-31T06:56:16.341Z,100075.25
2022-10-31T06:58:48.026Z,100081.78
2022-10-31T07:01:15.611Z,100078.00
2022-10-31T07:03:42.153Z,100078.09
2022-10-31T07:06:08.591Z,100079.16
2022-10-31T07:08:34.967Z,100077.03
2022-10-31T07:11:01.588Z,100080.09
2022-10-31T07:13:29.544Z,100084.84
2022-10-31T07:16:08.164Z,100086.75
2022-10-31T07:18:36.272Z,100084.56
2022-10-31T07:21:03.125Z,100087.28
2022-10-31T07:23:29.593Z,100090.13
2022-10-31T07:26:14.372Z,100089.31
2022-10-31T07:28:47.057Z,100097.13
2022-10-31T07:31:14.233Z,100093.22
2022-10-31T07:33:41.032Z,100096.69
2022-10-31T07:36:39.206Z,100096.06
2022-10-31T07:39:05.789Z,100103.25
2022-10-31T07:41:34.904Z,100094.50
2022-10-31T07:44:01.990Z,100098.41
2022-10-31T07:46:46.991Z,100066.47
2022-10-31T07:49:32.075Z,100099.13
2022-10-31T07:52:16.956Z,100091.28
2022-10-31T07:55:21.286Z,100102.59
2022-10-31T07:57:56.868Z,100102.91
2022-10-31T08:00:49.073Z,100107.03
2022-10-31T08:03:25.913Z,100108.19
2022-10-31T08:06:10.274Z,100110.13
2022-10-31T08:08:45.680Z,100105.78
2022-10-31T08:11:12.108Z,100110.81
2022-10-31T08:13:39.144Z,100110.81
2022-10-31T08:16:08.313Z,100103.34
2022-10-31T08:18:38.732Z,100115.19
2022-10-31T08:21:12.132Z,100109.91
2022-10-31T08:23:38.555Z,100105.78
2022-10-31T08:26:07.547Z,100100.81
2022-10-31T08:28:34.031Z,100106.09
2022-10-31T08:31:00.555Z,100101.66
2022-10-31T08:33:38.742Z,100096.31
2022-10-31T08:36:23.691Z,100096.72
2022-10-31T08:39:01.899Z,100090.81
2022-10-31T08:41:30.147Z,100089.78
2022-10-31T08:43:57.421Z,100082.56
2022-10-31T08:46:23.876Z,100076.31
2022-10-31T08:48:50.458Z,100078.75
2022-10-31T08:51:18.631Z,100070.31
2022-10-31T08:53:45.401Z,100078.22
2022-10-31T08:56:30.631Z,100073.53
2022-10-31T08:58:57.270Z,100072.31
2022-10-31T09:01:33.459Z,100075.31
2022-10-31T09:04:00.025Z,100069.06
2022-10-31T09:06:26.969Z,100057.19
2022-10-31T09:08:53.982Z,100067.13
2022-10-31T09:11:24.490Z,100064.47
2022-10-31T09:14:19.777Z,100065.53
2022-10-31T09:17:12.227Z,100058.38
2022-10-31T09:19:53.710Z,100062.00
2022-10-31T09:22:27.833Z,100065.41
2022-10-31T09:24:54.266Z,100063.66
2022-10-31T09:27:20.982Z,100058.72
2022-10-31T09:29:48.417Z,100051.03
2022-10-31T09:32:16.708Z,100051.31
2022-10-31T09:34:45.984Z,100046.97
2022-10-31T09:37:16.168Z,100047.22
2022-10-31T09:39:42.702Z,100044.81
2022-10-31T09:42:23.810Z,100039.53
2022-10-31T09:44:56.472Z,100039.78
2022-10-31T09:47:55.553Z,100037.34
2022-10-31T09:50:48.453Z,100034.84
2022-10-31T09:54:13.231Z,100037.00
2022-10-31T09:56:39.670Z,100035.69
2022-10-31T09:59:13.830Z,100033.47
2022-10-31T10:01:49.456Z,100026.50
2022-10-31T10:04:38.719Z,100025.78
2022-10-31T10:07:54.813Z,100032.53
2022-10-31T10:10:54.401Z,100025.16
2022-10-31T10:14:00.235Z,100022.72
2022-10-31T10:16:35.732Z,100019.69
2022-10-31T10:19:26.573Z,100016.22
2022-10-31T10:22:17.544Z,100023.06
2022-10-31T10:24:59.669Z,100022.81
2022-10-31T10:27:49.671Z,100017.28
2022-10-31T10:30:28.056Z,100020.66
2022-10-31T10:32:58.731Z,100017.13
2022-10-31T10:35:35.360Z,100020.13
2022-10-31T10:38:16.155Z,100009.28
2022-10-31T10:40:43.231Z,100000.09
2022-10-31T10:43:21.859Z,100014.75
2022-10-31T10:46:28.528Z,100004.63
2022-10-31T10:49:01.018Z,99999.06
2022-10-31T10:54:40.904Z,99985.03
2022-10-31T10:57:14.211Z,99981.25
2022-10-31T10:59:41.004Z,99978.34
2022-10-31T11:02:19.781Z,99974.06
2022-10-31T11:04:50.973Z,99975.88
2022-10-31T11:07:17.345Z,99966.53
2022-10-31T11:09:43.799Z,99958.31
2022-10-31T11:12:32.834Z,99961.44
2022-10-31T11:15:06.609Z,99955.88
2022-10-31T11:17:37.087Z,99954.03
2022-10-31T11:20:26.794Z,99944.13
2022-10-31T11:23:03.109Z,99943.59
2022-10-31T11:25:29.553Z,99939.84
2022-10-31T11:28:00.463Z,99932.59
2022-10-31T11:30:27.009Z,99931.72
2022-10-31T11:32:53.763Z,99919.69
2022-10-31T11:35:23.283Z,99924.63
2022-10-31T11:37:52.527Z,99920.72
2022-10-31T11:40:23.549Z,99923.25
2022-10-31T11:42:51.817Z,99921.41
2022-10-31T11:45:29.765Z,99920.44
2022-10-31T11:47:59.912Z,99930.50
2022-10-31T11:50:40.469Z,99928.88
2022-10-31T11:53:18.612Z,99925.78
2022-10-31T11:55:46.869Z,99930.97
2022-10-31T11:58:25.226Z,99918.41
2022-10-31T12:00:54.935Z,99919.00
2022-10-31T12:03:24.375Z,99919.44
2022-10-31T12:06:01.406Z,99905.75
2022-10-31T12:08:32.381Z,99894.13
2022-10-31T12:11:10.559Z,99891.06
2022-10-31T12:14:05.947Z,99883.66
2022-10-31T12:16:45.660Z,99865.31
2022-10-31T12:19:39.310Z,99861.84
2022-10-31T12:22:14.305Z,99855.56
2022-10-31T12:24:58.143Z,99849.38
2022-10-31T12:27:37.101Z,99860.56
2022-10-31T12:30:15.345Z,99847.16
2022-10-31T12:32:57.824Z,99848.69
2022-10-31T12:38:35.810Z,99846.75
2022-10-31T12:41:07.482Z,99845.75
2022-10-31T12:43:48.499Z,99839.31
2022-10-31T12:46:27.026Z,99834.84
2022-10-31T12:49:08.348Z,99827.97
2022-10-31T12:51:34.732Z,99821.53
2022-10-31T12:54:09.727Z,99824.78
2022-10-31T12:57:03.571Z,99811.88
2022-10-31T12:59:38.444Z,99812.03
2022-10-31T13:02:17.848Z,99811.31
2022-10-31T13:04:47.683Z,99797.03
2022-10-31T13:07:20.105Z,99794.38
2022-10-31T13:09:56.985Z,99789.06
2022-10-31T13:12:24.907Z,99776.03
2022-10-31T13:14:58.570Z,99783.44
2022-10-31T13:17:46.087Z,99755.59
2022-10-31T13:20:20.399Z,99758.13
2022-10-31T13:22:50.320Z,99757.28
2022-10-31T13:25:25.438Z,99757.16
2022-10-31T13:28:06.719Z,99756.84
2022-10-31T13:30:34.375Z,99759.50
2022-10-31T13:33:17.313Z,99759.50
2022-10-31T13:36:25.734Z,99758.53
2022-10-31T13:39:20.082Z,99761.19
2022-10-31T13:41:56.088Z,99744.56
2022-10-31T13:44:28.211Z,99746.91
2022-10-31T13:46:56.807Z,99744.94
2022-10-31T13:49:29.075Z,99744.81
2022-10-31T13:52:15.140Z,99749.13
2022-10-31T13:54:44.556Z,99748.16
2022-10-31T13:57:27.127Z,99739.34
2022-10-31T14:00:00.447Z,99741.03
2022-10-31T14:02:30.257Z,99732.34
2022-10-31T14:05:03.140Z,99730.66
2022-10-31T14:07:31.147Z,99730.66
2022-10-31T14:10:17.619Z,99730.66
2022-10-31T14:12:46.858Z,99714.69
2022-10-31T14:15:23.280Z,99720.03
2022-10-31T14:17:52.755Z,99717.38
2022-10-31T14:20:19.116Z,99726.88
2022-10-31T14:22:45.690Z,99741.31
2022-10-31T14:25:30.991Z,99741.72
2022-10-31T14:27:58.770Z,99734.84
2022-10-31T14:30:27.728Z,99736.41
2022-10-31T14:33:03.679Z,99726.47
2022-10-31T14:36:11.970Z,99723.22
2022-10-31T14:38:45.370Z,99721.41
2022-10-31T14:41:33.169Z,99707.25
2022-10-31T14:44:15.564Z,99700.13
2022-10-31T14:47:00.624Z,99693.69
2022-10-31T14:49:51.832Z,99689.34
2022-10-31T14:52:20.271Z,99685.97
2022-10-31T14:54:54.824Z,99691.88
2022-10-31T14:57:32.335Z,99697.56
2022-10-31T15:00:05.138Z,99703.75
2022-10-31T15:02:40.359Z,99686.41
2022-10-31T15:05:11.848Z,99681.91
2022-10-31T15:07:59.089Z,99669.56
2022-10-31T15:10:30.729Z,99676.91
2022-10-31T15:13:09.179Z,99664.84
2022-10-31T15:15:36.091Z,99656.88
2022-10-31T15:18:05.592Z,99660.06
2022-10-31T15:20:42.660Z,99658.69
2022-10-31T15:23:15.118Z,99660.38
2022-10-31T15:25:41.780Z,99658.84
2022-10-31T15:28:16.703Z,99655.03
2022-10-31T15:30:54.991Z,99651.56
2022-10-31T15:33:35.130Z,99647.78
2022-10-31T15:36:03.711Z,99649.47
2022-10-31T15:38:30.534Z,99640.13
2022-10-31T15:41:07.261Z,99634.13
2022-10-31T15:43:37.763Z,99633.25
2022-10-31T15:46:08.265Z,99631.59
2022-10-31T15:48:35.897Z,99622.53
2022-10-31T15:51:03.378Z,99614.56
2022-10-31T15:53:44.011Z,99612.88
2022-10-31T15:56:14.921Z,99613.72
2022-10-31T15:58:48.544Z,99606.16
2022-10-31T16:01:27.112Z,99612.34
2022-10-31T16:04:21.530Z,99593.31
2022-10-31T16:07:00.608Z,99589.13
2022-10-31T16:09:27.024Z,99572.78
2022-10-31T16:11:53.914Z,99554.16
2022-10-31T16:14:25.880Z,99578.25
2022-10-31T16:16:58.148Z,99607.50
2022-10-31T16:19:36.700Z,99569.00
2022-10-31T16:22:10.944Z,99564.69
2022-10-31T16:24:49.471Z,99567.63
2022-10-31T16:27:24.198Z,99554.03
2022-10-31T16:29:50.605Z,99546.34
2022-10-31T16:32:30.946Z,99537.41
2022-10-31T16:35:09.275Z,99531.22
2022-10-31T16:37:42.695Z,99530.41
2022-10-31T16:40:11.863Z,99544.84
2022-10-31T16:42:38.271Z,99524.34
2022-10-31T16:45:06.649Z,99536.28
2022-10-31T16:47:33.100Z,99512.06
2022-10-31T16:50:00.943Z,99530.91
2022-10-31T16:52:31.517Z,99528.97
2022-10-31T16:55:04.706Z,99534.72
2022-10-31T16:57:32.228Z,99541.00
2022-10-31T16:59:58.605Z,99529.41
2022-10-31T17:02:25.312Z,99538.63
2022-10-31T17:04:55.641Z,99534.31
2022-10-31T17:07:23.396Z,99547.59
2022-10-31T17:09:49.852Z,99540.72
2022-10-31T17:12:22.267Z,99538.50
2022-10-31T17:14:51.588Z,99532.47
2022-10-31T17:17:18.053Z,99524.34
2022-10-31T17:19:44.436Z,99528.31
2022-10-31T17:22:15.260Z,99541.84
2022-10-31T17:24:41.881Z,99546.22
2022-10-31T17:27:08.324Z,99557.53
2022-10-31T17:29:35.312Z,99567.00
2022-10-31T17:32:03.768Z,99580.72
2022-10-31T17:34:30.954Z,99585.63
2022-10-31T17:36:57.366Z,99588.00
2022-10-31T17:39:23.744Z,99590.13
2022-10-31T17:41:51.282Z,99587.88
2022-10-31T17:44:18.463Z,99589.03
2022-10-31T17:46:45.209Z,99594.88
2022-10-31T17:49:12.563Z,99584.53
2022-10-31T17:51:39.122Z,99582.47
2022-10-31T17:54:06.917Z,99580.06
2022-10-31T17:56:33.309Z,99573.38
2022-10-31T17:58:59.810Z,99573.38
2022-10-31T18:01:26.465Z,99566.38
2022-10-31T18:03:53.033Z,99560.94
2022-10-31T18:06:19.997Z,99566.41
2022-10-31T18:08:46.545Z,99556.75
2022-10-31T18:11:17.219Z,99559.13
2022-10-31T18:13:43.814Z,99543.88
2022-10-31T18:16:19.194Z,99545.00
2022-10-31T18:18:50.898Z,99545.72
2022-10-31T18:21:17.931Z,99545.59
2022-10-31T18:23:44.461Z,99552.97
2022-10-31T18:26:11.208Z,99557.31
2022-10-31T18:28:38.138Z,99558.72
2022-10-31T18:31:04.716Z,99555.63
2022-10-31T18:33:31.248Z,99550.47
2022-10-31T18:36:04.466Z,99540.69
2022-10-31T18:38:30.860Z,99553.25
2022-10-31T18:40:57.272Z,99548.91
2022-10-31T18:43:23.649Z,99565.94
2022-10-31T18:45:55.005Z,99563.31
2022-10-31T18:48:24.296Z,99570.31
2022-10-31T18:50:50.825Z,99576.66
2022-10-31T18:53:17.275Z,99569.88
2022-10-31T18:55:47.264Z,99562.97
2022-10-31T18:58:16.701Z,99558.78
2022-10-31T19:00:43.212Z,99570.41
2022-10-31T19:03:09.620Z,99573.44
2022-10-31T19:05:36.030Z,99577.78
2022-10-31T19:08:02.394Z,99567.16
2022-10-31T19:10:28.922Z,99582.94
2022-10-31T19:12:55.298Z,99576.94
2022-10-31T19:15:21.685Z,99571.38
2022-10-31T19:17:48.196Z,99572.19
2022-10-31T19:20:14.696Z,99575.13
2022-10-31T19:22:41.055Z,99568.16
2022-10-31T19:25:10.604Z,99563.94
2022-10-31T19:27:37.936Z,99569.13
2022-10-31T19:30:05.555Z,99564.63
2022-10-31T19:32:32.057Z,99565.75
2022-10-31T19:34:58.600Z,99562.34
2022-10-31T19:37:24.988Z,99570.50
2022-10-31T19:39:51.503Z,99564.88
2022-10-31T19:42:18.215Z,99559.59
2022-10-31T19:44:44.659Z,99556.09
2022-10-31T19:47:11.022Z,99558.03
2022-10-31T19:49:37.437Z,99538.72
2022-10-31T19:52:03.971Z,99553.75
2022-10-31T19:54:31.981Z,99547.06
2022-10-31T19:56:58.417Z,99548.88
2022-10-31T19:59:26.085Z,99549.84
2022-10-31T20:01:52.643Z,99548.16
2022-10-31T20:04:19.133Z,99542.50
2022-10-31T20:06:45.579Z,99551.56
2022-10-31T20:09:14.217Z,99551.56
2022-10-31T20:11:42.172Z,99549.88
2022-10-31T20:14:10.735Z,99523.03
2022-10-31T20:16:38.052Z,99532.25
2022-10-31T20:19:04.688Z,99534.91
2022-10-31T20:21:32.088Z,99537.25
2022-10-31T20:24:03.968Z,99534.34
2022-10-31T20:26:31.842Z,99535.50
2022-10-31T20:28:59.672Z,99545.13
2022-10-31T20:31:28.434Z,99536.34
2022-10-31T20:33:55.738Z,99530.72
2022-10-31T20:36:23.009Z,99527.22
2022-10-31T20:38:50.629Z,99531.53
2022-10-31T20:41:17.334Z,99520.50
2022-10-31T20:43:44.820Z,99518.16
2022-10-31T20:46:14.344Z,99517.13
2022-10-31T20:48:41.428Z,99507.97
2022-10-31T20:51:12.556Z,99509.63
2022-10-31T20:53:38.987Z,99502.91
2022-10-31T20:56:11.299Z,99511.81
2022-10-31T20:58:39.296Z,99508.16
2022-10-31T21:01:10.958Z,99511.13
2022-10-31T21:03:37.499Z,99505.50
2022-10-31T21:06:04.977Z,99506.22
2022-10-31T21:08:32.004Z,99502.41
2022-10-31T21:10:59.525Z,99501.75
2022-10-31T21:13:27.960Z,99505.75
2022-10-31T21:16:03.015Z,99501.28
2022-10-31T21:18:29.488Z,99497.09
2022-10-31T21:20:55.889Z,99503.50
2022-10-31T21:23:22.360Z,99495.69
2022-10-31T21:25:48.753Z,99493.63
2022-10-31T21:28:15.377Z,99498.34
2022-10-31T21:30:44.247Z,99489.41
2022-10-31T21:33:11.064Z,99489.44
2022-10-31T21:35:37.594Z,99490.06
2022-10-31T21:38:04.609Z,99497.59
2022-10-31T21:40:31.405Z,99491.19
2022-10-31T21:42:58.392Z,99493.97
2022-10-31T21:45:25.011Z,99487.13
2022-10-31T21:47:51.399Z,99484.47
2022-10-31T21:50:18.172Z,99482.22
2022-10-31T21:52:44.556Z,99487.41
2022-10-31T21:55:10.976Z,99471.53
2022-10-31T21:57:37.563Z,99481.25
2022-10-31T22:00:06.990Z,99479.19
2022-10-31T22:02:35.407Z,99473.97
2022-10-31T22:05:01.818Z,99466.31
2022-10-31T22:07:28.341Z,99470.25
2022-10-31T22:09:54.720Z,99460.56
2022-10-31T22:12:21.126Z,99449.13
2022-10-31T22:14:47.497Z,99445.66
2022-10-31T22:17:13.898Z,99439.22
2022-10-31T22:19:40.289Z,99440.63
2022-10-31T22:22:06.649Z,99457.13
2022-10-31T22:24:33.024Z,99441.38
2022-10-31T22:26:59.860Z,99463.25
2022-10-31T22:29:28.713Z,99452.06
2022-10-31T22:31:58.790Z,99455.25
2022-10-31T22:34:27.951Z,99446.78
2022-10-31T22:36:56.073Z,99458.53
2022-10-31T22:39:22.520Z,99451.41
2022-10-31T22:41:48.895Z,99453.91
2022-10-31T22:44:15.313Z,99441.06
2022-10-31T22:46:41.732Z,99443.56
2022-10-31T22:49:11.859Z,99442.50
2022-10-31T22:51:39.500Z,99440.28
2022-10-31T22:54:11.294Z,99447.38
2022-10-31T22:56:38.226Z,99429.25
2022-10-31T22:59:04.729Z,99420.41
2022-10-31T23:01:33.408Z,99435.31
2022-10-31T23:04:01.184Z,99420.47
2022-10-31T23:06:32.543Z,99420.31
2022-10-31T23:09:04.259Z,99420.00
2022-10-31T23:11:40.123Z,99425.75
2022-10-31T23:14:14.136Z,99430.22
2022-10-31T23:16:42.088Z,99427.19
2022-10-31T23:19:10.559Z,99434.81
2022-10-31T23:21:57.303Z,99431.69
2022-10-31T23:24:33.935Z,99430.34
2022-10-31T23:27:10.960Z,99423.75
2022-10-31T23:29:46.491Z,99433.69
2022-10-31T23:32:35.143Z,99432.81
2022-10-31T23:35:04.651Z,99422.34
2022-10-31T23:37:34.196Z,99431.66
2022-10-31T23:40:00.855Z,99432.38
2022-10-31T23:42:28.440Z,99429.94
2022-10-31T23:44:55.196Z,99419.28
2022-10-31T23:47:21.938Z,99431.13
2022-10-31T23:49:48.879Z,99416.41
2022-10-31T23:52:16.058Z,99413.78
2022-10-31T23:54:43.036Z,99425.09
2022-10-31T23:57:10.848Z,99426.31
2022-10-31T23:59:37.274Z,99418.94
